Time;durP1;ratioP1;P1;durP2;ratioP2;P2;SDS_P1;SDS_P2;PMS_P1;PMS_P2;Temp;Humidity;BMP_temperature;BMP_pressure;BME280_temperature;BME280_humidity;BME280_pressure;Samples;Min_cycle;Max_cycle;Signal;HPM_P1;HPM_P2
2023/11/29 00:00:41;;;;;;;4.30;2.95;;;-1.00;99.90;;;;;;4969818;28;20215;-72
2023/11/29 00:03:07;;;;;;;4.80;3.35;;;-1.00;99.90;;;;;;4969990;28;20231;-71
2023/11/29 00:05:36;;;;;;;6.00;3.80;;;-1.00;99.90;;;;;;4970552;28;20226;-72
2023/11/29 00:08:05;;;;;;;8.32;4.40;;;-1.00;99.90;;;;;;4970752;28;20215;-71
2023/11/29 00:10:33;;;;;;;5.30;3.47;;;-0.90;99.90;;;;;;4971035;28;20227;-71
2023/11/29 00:12:59;;;;;;;6.47;4.13;;;-1.00;99.90;;;;;;4971494;28;20307;-72
2023/11/29 04:31:42;;;;;;;4.75;3.53;;;-3.10;99.90;;;;;;5475729;23;20319;-72
2023/11/29 04:34:09;;;;;;;3.13;2.30;;;-3.10;99.90;;;;;;4935974;29;20208;-72
2023/11/29 04:36:36;;;;;;;4.85;3.20;;;-3.00;99.90;;;;;;4934362;29;20236;-72
2023/11/29 04:39:05;;;;;;;6.13;2.78;;;-3.00;99.90;;;;;;4933576;29;20220;-72
2023/11/29 04:41:31;;;;;;;5.20;2.83;;;-2.90;99.90;;;;;;4933987;29;20217;-72
2023/11/29 04:44:01;;;;;;;3.03;2.80;;;-2.90;99.90;;;;;;4930918;29;20225;-70
2023/11/29 04:46:29;;;;;;;5.35;3.20;;;-2.80;99.90;;;;;;4930483;29;20205;-71
2023/11/29 04:48:57;;;;;;;5.03;3.45;;;-2.70;99.90;;;;;;4925823;29;20216;-71
2023/11/29 04:51:24;;;;;;;3.50;2.55;;;-2.60;99.90;;;;;;4927653;29;20220;-71
2023/11/29 04:53:51;;;;;;;5.97;3.38;;;-2.60;99.90;;;;;;4926678;29;20209;-72
2023/11/29 04:56:19;;;;;;;3.35;3.05;;;-2.50;99.90;;;;;;4927017;29;20206;-71
2023/11/29 04:58:46;;;;;;;5.25;3.88;;;-2.40;99.90;;;;;;4927151;29;20649;-72
2023/11/29 05:01:13;;;;;;;5.32;2.90;;;-2.30;99.90;;;;;;4929301;29;20228;-72
2023/11/29 05:03:40;;;;;;;4.38;2.70;;;-2.30;99.90;;;;;;4927724;29;20896;-71
2023/11/29 05:06:10;;;;;;;4.70;3.33;;;-2.20;99.90;;;;;;4925553;29;20202;-71
2023/11/29 05:08:37;;;;;;;3.90;3.10;;;-2.20;99.90;;;;;;4930146;29;20216;-71
2023/11/29 05:11:05;;;;;;;5.50;3.55;;;-2.10;99.90;;;;;;4927364;29;20226;-71
2023/11/29 05:13:32;;;;;;;3.88;2.72;;;-2.10;99.90;;;;;;4928626;29;20686;-71
2023/11/29 05:15:59;;;;;;;6.55;3.50;;;-2.10;99.90;;;;;;4925838;29;20225;-73
2023/11/29 05:18:26;;;;;;;3.70;3.40;;;-2.10;99.90;;;;;;4927794;29;20221;-71
2023/11/29 05:20:53;;;;;;;7.30;4.03;;;-2.10;99.90;;;;;;4931766;29;20221;-74
2023/11/29 05:23:23;;;;;;;5.45;3.22;;;-2.10;99.90;;;;;;4936710;29;20753;-72
2023/11/29 05:25:50;;;;;;;4.35;3.42;;;-2.00;99.90;;;;;;4934107;29;20205;-71
2023/11/29 05:28:17;;;;;;;3.33;2.38;;;-2.00;99.90;;;;;;4932258;29;20239;-71
2023/11/29 05:30:43;;;;;;;4.90;3.17;;;-2.00;99.90;;;;;;4936392;29;20229;-71
2023/11/29 05:33:10;;;;;;;5.70;3.10;;;-1.90;99.90;;;;;;4930689;29;20597;-71
2023/11/29 05:35:37;;;;;;;4.22;3.08;;;-1.90;99.90;;;;;;4936958;29;20205;-72
2023/11/29 05:38:04;;;;;;;4.25;2.80;;;-1.90;99.90;;;;;;4935314;29;20219;-72
2023/11/29 05:40:32;;;;;;;4.90;3.72;;;-1.80;99.90;;;;;;4935437;29;20273;-72
2023/11/29 05:42:59;;;;;;;6.93;3.75;;;-1.80;99.90;;;;;;4937090;29;20213;-71
2023/11/29 05:45:26;;;;;;;3.55;2.75;;;-1.80;99.90;;;;;;4936763;29;20213;-72
2023/11/29 05:47:53;;;;;;;5.63;3.15;;;-1.80;99.90;;;;;;4936685;29;20213;-72
2023/11/29 05:50:19;;;;;;;6.65;3.47;;;-1.70;99.90;;;;;;4936842;29;20229;-71
2023/11/29 05:52:46;;;;;;;3.85;2.70;;;-1.70;99.90;;;;;;4936947;29;20213;-71
2023/11/29 05:55:15;;;;;;;3.88;2.50;;;-1.70;99.90;;;;;;4936772;29;20598;-71
2023/11/29 05:57:45;;;;;;;3.97;3.00;;;-1.70;99.90;;;;;;4936510;29;20227;-71
2023/11/29 06:00:13;;;;;;;7.75;3.58;;;-1.60;99.90;;;;;;4936715;29;20265;-71
2023/11/29 06:02:40;;;;;;;3.47;2.80;;;-1.60;99.90;;;;;;4936779;29;20209;-71
2023/11/29 06:05:08;;;;;;;3.60;2.33;;;-1.60;99.90;;;;;;4936673;29;20236;-72
2023/11/29 06:07:35;;;;;;;6.28;3.72;;;-1.60;99.90;;;;;;4936244;29;20212;-72
2023/11/29 06:10:03;;;;;;;5.32;3.00;;;-1.50;99.90;;;;;;4936551;29;20638;-71
2023/11/29 06:12:30;;;;;;;6.28;3.35;;;-1.50;99.90;;;;;;4936577;29;20642;-71
2023/11/29 06:14:58;;;;;;;4.60;3.60;;;-1.50;99.90;;;;;;4936217;29;20213;-71
2023/11/29 06:17:25;;;;;;;3.80;2.85;;;-1.40;99.90;;;;;;4936246;29;20220;-70
2023/11/29 06:19:52;;;;;;;4.00;3.13;;;-1.50;99.90;;;;;;4936394;29;20217;-70
2023/11/29 06:22:18;;;;;;;5.70;3.80;;;-1.50;99.90;;;;;;4932639;29;20225;-70
2023/11/29 06:24:45;;;;;;;4.55;3.72;;;-1.50;99.90;;;;;;4936384;29;20213;-71
2023/11/29 06:27:12;;;;;;;7.93;3.50;;;-1.50;99.90;;;;;;4932639;29;20209;-70
2023/11/29 06:29:38;;;;;;;5.40;2.70;;;-1.50;99.90;;;;;;4936463;29;20205;-70
2023/11/29 06:32:07;;;;;;;6.90;3.67;;;-1.50;99.90;;;;;;4930583;29;20233;-71
2023/11/29 06:34:34;;;;;;;4.85;2.75;;;-1.50;99.90;;;;;;4936168;29;20212;-71
2023/11/29 06:37:00;;;;;;;5.03;4.05;;;-1.40;99.90;;;;;;4935601;29;20604;-71
2023/11/29 06:39:27;;;;;;;6.22;3.60;;;-1.40;99.90;;;;;;4936161;29;20238;-70
2023/11/29 06:41:54;;;;;;;6.05;3.80;;;-1.40;99.90;;;;;;4936155;29;20221;-70
2023/11/29 06:44:21;;;;;;;5.75;4.03;;;-1.40;99.90;;;;;;4936078;29;20209;-72
2023/11/29 06:46:47;;;;;;;6.47;3.53;;;-1.40;99.90;;;;;;4935390;29;20264;-72
2023/11/29 06:49:15;;;;;;;5.28;4.05;;;-1.30;99.90;;;;;;4935968;29;20213;-72
2023/11/29 06:51:42;;;;;;;4.20;2.58;;;-1.30;99.90;;;;;;4935704;29;20229;-72
2023/11/29 06:54:09;;;;;;;4.20;3.80;;;-1.30;99.90;;;;;;4936074;29;20217;-72
2023/11/29 06:56:35;;;;;;;4.38;2.58;;;-1.30;99.90;;;;;;4929752;29;20221;-71
2023/11/29 06:59:04;;;;;;;4.90;3.20;;;-1.30;99.90;;;;;;4935718;29;20216;-71
2023/11/29 07:01:31;;;;;;;6.38;3.00;;;-1.30;99.90;;;;;;4935698;29;20229;-72
2023/11/29 07:03:57;;;;;;;3.92;2.90;;;-1.30;99.90;;;;;;4935868;29;20213;-72
2023/11/29 07:06:26;;;;;;;7.50;4.03;;;-1.30;99.90;;;;;;4933626;29;20252;-72
2023/11/29 07:08:52;;;;;;;3.42;3.13;;;-1.30;99.90;;;;;;4935483;29;20753;-71
2023/11/29 07:11:19;;;;;;;4.40;3.70;;;-1.20;99.90;;;;;;4935361;29;20241;-72
2023/11/29 07:13:47;;;;;;;6.05;3.13;;;-1.20;99.90;;;;;;4935297;29;20674;-72
2023/11/29 07:16:14;;;;;;;4.70;3.33;;;-1.20;99.90;;;;;;4935085;29;20215;-71
2023/11/29 07:18:40;;;;;;;4.35;3.17;;;-1.20;99.90;;;;;;4935150;29;20206;-72
2023/11/29 07:21:07;;;;;;;5.22;3.85;;;-1.20;99.90;;;;;;4935489;29;20229;-74
2023/11/29 07:23:35;;;;;;;7.20;3.03;;;-1.20;99.90;;;;;;4935210;29;20212;-72
2023/11/29 07:26:02;;;;;;;6.72;2.80;;;-1.30;99.90;;;;;;4933921;29;20209;-72
2023/11/29 07:28:29;;;;;;;3.65;2.95;;;-1.20;99.90;;;;;;4934679;29;20228;-72
2023/11/29 07:30:56;;;;;;;3.05;2.63;;;-1.20;99.90;;;;;;4934797;29;20237;-72
2023/11/29 07:33:22;;;;;;;5.00;4.15;;;-1.10;99.90;;;;;;4935128;29;20268;-73
2023/11/29 07:35:50;;;;;;;3.00;2.72;;;-1.00;99.90;;;;;;4932242;29;20221;-72
2023/11/29 07:38:16;;;;;;;4.70;4.22;;;-1.00;99.90;;;;;;4932186;29;20209;-72
2023/11/29 07:40:44;;;;;;;4.25;2.90;;;-0.90;99.90;;;;;;4934628;29;20221;-73
2023/11/29 07:43:11;;;;;;;6.88;3.65;;;-0.90;99.90;;;;;;4934984;29;20206;-73
2023/11/29 07:45:38;;;;;;;3.17;2.20;;;-0.90;99.90;;;;;;4934748;29;20682;-71
2023/11/29 07:48:06;;;;;;;5.18;3.58;;;-0.90;99.90;;;;;;4929347;29;20213;-71
2023/11/29 07:50:32;;;;;;;3.20;2.90;;;-0.70;99.90;;;;;;4934666;29;20292;-72
2023/11/29 07:52:59;;;;;;;4.30;3.33;;;-0.50;99.90;;;;;;4934699;29;20221;-72
2023/11/29 07:55:26;;;;;;;5.18;3.00;;;-0.40;99.90;;;;;;4934537;29;20205;-72
2023/11/29 07:57:54;;;;;;;4.00;3.35;;;-0.50;99.90;;;;;;4934193;29;20213;-72
2023/11/29 08:00:21;;;;;;;2.50;2.30;;;-0.50;99.90;;;;;;4934622;29;20216;-72
2023/11/29 08:02:48;;;;;;;4.55;3.38;;;-0.50;99.90;;;;;;4934437;29;20212;-71
2023/11/29 08:05:15;;;;;;;5.90;3.45;;;-0.60;99.90;;;;;;4934739;29;20287;-71
2023/11/29 08:07:41;;;;;;;8.27;4.25;;;-0.60;99.90;;;;;;4934083;29;20213;-72
2023/11/29 08:10:09;;;;;;;4.75;3.30;;;-0.60;99.90;;;;;;4934635;29;20305;-72
2023/11/29 08:12:37;;;;;;;3.40;2.88;;;-0.60;99.90;;;;;;4934152;29;20232;-72
2023/11/29 08:15:06;;;;;;;3.60;2.35;;;-0.60;99.90;;;;;;4934146;29;20213;-72
2023/11/29 08:17:33;;;;;;;2.50;2.17;;;-0.60;99.90;;;;;;4934014;29;20216;-72
2023/11/29 08:20:00;;;;;;;3.13;2.20;;;-0.50;99.90;;;;;;4934262;29;20221;-72
2023/11/29 08:22:26;;;;;;;3.35;2.70;;;-0.50;99.90;;;;;;4933814;29;20526;-72
2023/11/29 08:24:53;;;;;;;3.90;3.08;;;-0.50;99.90;;;;;;4930351;29;20213;-73
2023/11/29 08:27:21;;;;;;;6.05;3.40;;;-0.50;99.90;;;;;;4933953;29;20217;-73
2023/11/29 08:29:48;;;;;;;3.00;2.70;;;-0.50;99.90;;;;;;4933774;29;20678;-73
2023/11/29 08:32:17;;;;;;;6.85;3.05;;;-0.40;99.90;;;;;;4933989;29;20660;-73
2023/11/29 08:34:44;;;;;;;4.03;2.55;;;-0.40;99.90;;;;;;4931894;29;20213;-73
2023/11/29 08:37:11;;;;;;;5.13;3.30;;;-0.40;99.90;;;;;;4933854;29;20209;-73
2023/11/29 08:39:37;;;;;;;3.30;3.00;;;-0.30;99.90;;;;;;4934058;29;20575;-73
2023/11/29 08:42:05;;;;;;;3.08;2.55;;;-0.30;99.90;;;;;;4925716;29;20224;-72
2023/11/29 08:44:32;;;;;;;3.00;2.80;;;-0.30;99.90;;;;;;4933036;29;20209;-72
2023/11/29 08:46:59;;;;;;;4.90;2.30;;;-0.20;99.90;;;;;;4930566;29;20288;-71
2023/11/29 08:49:27;;;;;;;2.92;2.63;;;-0.20;99.90;;;;;;4933460;29;20205;-73
2023/11/29 08:51:55;;;;;;;2.85;2.65;;;-0.10;99.90;;;;;;4933580;29;20743;-72
2023/11/29 08:54:22;;;;;;;4.35;2.50;;;-0.10;99.90;;;;;;4931807;29;20216;-73
2023/11/29 08:56:48;;;;;;;3.40;3.03;;;0.00;99.90;;;;;;4932991;29;20233;-73
2023/11/29 08:59:17;;;;;;;5.50;2.97;;;0.10;99.90;;;;;;4933904;29;20205;-73
2023/11/29 09:01:44;;;;;;;3.60;2.92;;;0.10;99.90;;;;;;4933402;29;20284;-73
2023/11/29 09:04:10;;;;;;;3.25;2.85;;;0.10;99.90;;;;;;4933751;29;20206;-73
2023/11/29 09:06:39;;;;;;;3.25;2.85;;;0.10;99.90;;;;;;4933119;29;20209;-73
2023/11/29 09:09:08;;;;;;;3.67;3.20;;;0.00;99.90;;;;;;4927711;29;20289;-72
2023/11/29 09:11:34;;;;;;;3.00;2.38;;;-0.10;99.90;;;;;;4933397;29;20229;-73
2023/11/29 09:14:01;;;;;;;3.75;2.45;;;0.00;99.90;;;;;;4933590;29;20216;-70
2023/11/29 09:16:28;;;;;;;4.65;2.60;;;0.00;99.90;;;;;;4933167;29;20209;-73
2023/11/29 09:18:55;;;;;;;2.83;2.63;;;-0.10;99.90;;;;;;4933320;29;20205;-72
2023/11/29 09:21:21;;;;;;;3.97;2.88;;;-0.10;99.90;;;;;;4933739;29;20244;-73
2023/11/29 09:23:49;;;;;;;3.17;2.83;;;0.00;99.90;;;;;;4931878;29;20220;-73
2023/11/29 09:26:16;;;;;;;3.78;2.35;;;0.00;99.90;;;;;;4933157;29;20233;-73
2023/11/29 09:28:43;;;;;;;4.75;3.30;;;0.00;99.90;;;;;;4933153;29;20215;-72
2023/11/29 09:31:13;;;;;;;3.40;2.20;;;0.00;99.90;;;;;;4933275;29;20671;-73
2023/11/29 09:33:41;;;;;;;2.90;2.60;;;0.00;99.90;;;;;;4933371;29;20233;-72
2023/11/29 09:36:09;;;;;;;3.22;2.38;;;0.10;99.90;;;;;;4926855;29;20217;-72
2023/11/29 09:38:36;;;;;;;4.75;2.20;;;0.20;99.90;;;;;;4933135;29;20205;-73
2023/11/29 09:41:07;;;;;;;3.58;3.22;;;0.30;99.90;;;;;;4933147;29;20225;-73
2023/11/29 09:43:35;;;;;;;2.63;1.92;;;0.40;99.90;;;;;;4933143;29;20264;-72
2023/11/29 09:46:01;;;;;;;3.28;2.92;;;0.60;99.90;;;;;;4932687;29;20208;-70
2023/11/29 09:48:28;;;;;;;3.63;2.70;;;0.90;99.90;;;;;;4929891;29;20267;-70
2023/11/29 09:50:56;;;;;;;3.95;3.30;;;1.00;99.90;;;;;;4932924;29;20252;-70
2023/11/29 09:53:23;;;;;;;3.92;3.05;;;1.10;99.90;;;;;;4933304;29;20225;-69
2023/11/29 09:55:50;;;;;;;3.58;2.90;;;1.10;99.90;;;;;;4932632;29;20213;-70
2023/11/29 09:58:19;;;;;;;4.93;2.63;;;0.90;99.90;;;;;;4933220;29;20205;-70
2023/11/29 10:00:46;;;;;;;3.35;2.60;;;0.90;99.90;;;;;;4932737;29;20228;-71
2023/11/29 10:03:13;;;;;;;2.70;2.50;;;0.80;99.90;;;;;;4933328;29;20217;-71
2023/11/29 10:05:45;;;;;;;2.80;2.40;;;0.70;99.90;;;;;;4934634;29;20209;-74
2023/11/29 10:08:13;;;;;;;2.83;2.10;;;0.70;99.90;;;;;;4936667;29;20205;-74
2023/11/29 10:10:40;;;;;;;2.58;2.10;;;0.70;99.90;;;;;;4936236;29;20225;-74
2023/11/29 10:13:07;;;;;;;2.22;2.03;;;0.70;99.90;;;;;;4936797;29;20225;-73
2023/11/29 10:15:35;;;;;;;2.22;1.70;;;0.80;99.90;;;;;;4936565;29;20205;-73
2023/11/29 10:18:03;;;;;;;2.38;2.17;;;0.80;99.90;;;;;;4935763;29;20286;-73
2023/11/29 10:20:31;;;;;;;2.30;2.00;;;0.90;99.90;;;;;;4936545;29;20268;-73
2023/11/29 10:22:58;;;;;;;2.45;2.25;;;1.20;99.90;;;;;;4936103;29;20671;-73
2023/11/29 10:25:25;;;;;;;2.30;2.10;;;2.00;99.90;;;;;;4936262;29;20209;-73
2023/11/29 10:27:52;;;;;;;2.45;2.25;;;3.60;99.90;;;;;;4935866;29;20264;-71
2023/11/29 10:30:19;;;;;;;2.33;2.10;;;4.20;99.90;;;;;;4936289;29;20562;-71
2023/11/29 10:32:48;;;;;;;2.20;1.80;;;4.40;99.90;;;;;;4935658;29;20234;-71
2023/11/29 10:35:18;;;;;;;3.45;1.83;;;4.30;99.90;;;;;;4936232;29;20208;-71
2023/11/29 10:37:56;;;;;;;1.75;1.65;;;3.90;99.90;;;;;;4935679;29;20209;-70
2023/11/29 10:40:24;;;;;;;2.50;1.75;;;3.30;99.90;;;;;;4936108;29;20204;-70
2023/11/29 10:42:54;;;;;;;2.55;2.08;;;2.90;99.90;;;;;;4935846;29;20205;-74
2023/11/29 10:45:21;;;;;;;2.55;1.98;;;2.70;99.90;;;;;;4935909;29;20224;-73
2023/11/29 10:48:01;;;;;;;1.70;1.50;;;2.80;99.90;;;;;;4935378;29;20205;-72
2023/11/29 10:50:29;;;;;;;2.35;2.15;;;2.90;99.90;;;;;;4936012;29;20670;-72
2023/11/29 10:52:56;;;;;;;2.92;2.25;;;3.00;99.90;;;;;;4935584;29;20229;-73
2023/11/29 10:55:24;;;;;;;3.15;2.05;;;3.00;99.90;;;;;;4935958;29;20205;-73
2023/11/29 10:57:56;;;;;;;2.60;1.95;;;2.80;99.90;;;;;;4935255;29;20213;-73
2023/11/29 11:00:26;;;;;;;4.20;2.30;;;2.50;99.90;;;;;;4935872;29;20205;-73
2023/11/29 11:02:54;;;;;;;2.35;1.92;;;2.30;99.90;;;;;;4935338;29;20213;-73
2023/11/29 11:05:24;;;;;;;1.58;1.45;;;2.10;99.90;;;;;;4935662;29;20659;-72
2023/11/29 11:07:52;;;;;;;2.05;1.85;;;2.00;99.90;;;;;;4934960;29;20713;-72
2023/11/29 11:10:23;;;;;;;3.33;1.98;;;1.90;99.90;;;;;;4935557;29;20556;-70
2023/11/29 11:12:51;;;;;;;4.53;2.15;;;1.90;99.90;;;;;;4935334;29;20613;-70
2023/11/29 11:15:21;;;;;;;2.25;2.05;;;1.80;99.90;;;;;;4935663;29;20264;-70
2023/11/29 11:18:21;;;;;;;3.00;2.25;;;1.80;99.90;;;;;;4934363;29;20209;-72
2023/11/29 11:20:55;;;;;;;2.15;1.95;;;1.80;99.90;;;;;;4935175;29;20225;-73
2023/11/29 11:23:24;;;;;;;4.18;2.60;;;1.80;99.90;;;;;;4935640;29;20617;-70
2023/11/29 11:25:54;;;;;;;2.78;2.50;;;2.10;99.90;;;;;;4934966;29;20308;-72
2023/11/29 11:28:28;;;;;;;3.15;2.70;;;3.20;99.90;;;;;;4935168;29;20741;-72
2023/11/29 11:30:55;;;;;;;2.53;1.75;;;4.40;99.90;;;;;;4934911;29;20650;-73
2023/11/29 11:33:23;;;;;;;2.40;1.70;;;5.30;99.90;;;;;;4935419;29;20361;-72
2023/11/29 11:35:51;;;;;;;2.47;2.00;;;5.90;99.90;;;;;;4934932;29;20258;-74
2023/11/29 11:38:18;;;;;;;2.80;2.20;;;6.10;99.90;;;;;;4934728;29;20261;-74
2023/11/29 11:40:45;;;;;;;2.20;1.90;;;6.30;99.90;;;;;;4934718;29;20226;-74
2023/11/29 11:43:12;;;;;;;3.50;2.70;;;6.30;99.90;;;;;;4926895;29;20218;-74
2023/11/29 11:45:40;;;;;;;2.63;2.22;;;6.30;99.90;;;;;;4934933;29;20212;-74
2023/11/29 11:48:07;;;;;;;2.42;2.10;;;6.50;99.90;;;;;;4934292;29;20212;-74
2023/11/29 11:50:34;;;;;;;1.95;1.75;;;6.30;99.90;;;;;;4935312;29;20800;-73
2023/11/29 11:53:04;;;;;;;2.90;2.10;;;6.70;99.90;;;;;;4934686;29;20229;-72
2023/11/29 11:55:32;;;;;;;2.25;2.05;;;7.10;99.90;;;;;;4934812;29;20213;-73
2023/11/29 11:58:00;;;;;;;2.33;2.08;;;7.10;99.90;;;;;;4932262;29;20210;-73
2023/11/29 12:00:30;;;;;;;2.58;2.38;;;6.80;99.90;;;;;;4930577;29;20206;-73
2023/11/29 12:02:58;;;;;;;2.38;1.90;;;6.40;99.90;;;;;;4927510;29;20205;-71
2023/11/29 12:05:25;;;;;;;2.03;1.80;;;6.10;99.90;;;;;;4934625;29;20213;-70
2023/11/29 12:07:52;;;;;;;2.85;2.20;;;6.00;99.90;;;;;;4934096;29;20570;-72
2023/11/29 12:10:22;;;;;;;3.85;2.40;;;6.00;99.90;;;;;;4934374;29;20589;-70
2023/11/29 12:12:48;;;;;;;2.10;1.90;;;5.20;99.90;;;;;;4934151;29;20230;-72
2023/11/29 12:15:16;;;;;;;2.17;1.92;;;4.90;99.90;;;;;;4934114;29;20675;-72
2023/11/29 12:17:44;;;;;;;2.28;2.08;;;4.70;99.90;;;;;;4934039;29;20211;-72
2023/11/29 12:20:11;;;;;;;2.85;1.85;;;4.60;99.90;;;;;;4934295;29;20213;-69
2023/11/29 12:22:44;;;;;;;2.05;1.85;;;4.30;99.90;;;;;;4934187;29;20234;-70
2023/11/29 12:25:12;;;;;;;2.17;1.67;;;4.00;99.90;;;;;;4933750;29;20205;-71
2023/11/29 12:27:44;;;;;;;2.40;2.08;;;3.80;99.90;;;;;;4933928;29;20250;-69
2023/11/29 12:30:12;;;;;;;2.25;1.83;;;3.80;99.90;;;;;;4933166;29;20627;-69
2023/11/29 12:32:40;;;;;;;1.85;1.65;;;3.60;99.90;;;;;;4934171;29;20222;-69
2023/11/29 12:35:15;;;;;;;2.20;2.00;;;3.30;99.90;;;;;;4933004;29;20213;-70
2023/11/29 12:37:43;;;;;;;3.05;2.05;;;3.30;99.90;;;;;;4933626;29;20228;-73
2023/11/29 12:40:12;;;;;;;1.98;1.55;;;3.40;99.90;;;;;;4933663;29;20288;-72
2023/11/29 12:42:40;;;;;;;2.28;1.80;;;3.20;99.90;;;;;;4934082;29;20584;-73
2023/11/29 12:45:07;;;;;;;1.95;1.75;;;3.20;99.90;;;;;;4932578;29;20685;-72
2023/11/29 12:47:34;;;;;;;1.92;1.80;;;3.10;99.90;;;;;;4933612;29;20682;-71
2023/11/29 12:50:01;;;;;;;3.30;2.33;;;3.00;99.90;;;;;;4933493;29;20219;-72
2023/11/29 12:52:28;;;;;;;3.80;2.28;;;2.90;99.90;;;;;;4933806;29;20229;-71
2023/11/29 12:54:54;;;;;;;2.17;1.88;;;2.70;99.90;;;;;;4933472;29;20205;-72
2023/11/29 12:57:21;;;;;;;2.63;1.92;;;2.50;99.90;;;;;;4933618;29;20709;-71
2023/11/29 12:59:49;;;;;;;1.95;1.63;;;2.40;99.90;;;;;;4933792;29;20220;-71
2023/11/29 13:02:16;;;;;;;2.10;1.70;;;2.30;99.90;;;;;;4933911;29;20232;-71
2023/11/29 13:04:44;;;;;;;2.42;2.22;;;2.10;99.90;;;;;;4933694;29;20205;-71
2023/11/29 13:07:10;;;;;;;2.20;2.00;;;2.10;99.90;;;;;;4933042;29;20803;-69
2023/11/29 13:09:37;;;;;;;3.55;1.85;;;2.10;99.90;;;;;;4933781;29;20208;-69
2023/11/29 13:12:04;;;;;;;2.25;2.05;;;2.10;99.90;;;;;;4933318;29;20237;-73
2023/11/29 13:14:33;;;;;;;3.42;2.03;;;2.00;99.90;;;;;;4933730;29;20264;-73
2023/11/29 13:17:01;;;;;;;2.95;2.25;;;2.00;99.90;;;;;;4932880;29;20244;-73
2023/11/29 13:19:28;;;;;;;2.45;1.88;;;2.00;99.90;;;;;;4933608;29;20205;-73
2023/11/29 13:21:54;;;;;;;2.63;2.38;;;2.10;99.90;;;;;;4933182;29;20315;-73
2023/11/29 13:24:21;;;;;;;1.45;1.35;;;2.10;99.90;;;;;;4933601;29;20689;-73
2023/11/29 13:26:48;;;;;;;3.00;2.20;;;2.10;99.90;;;;;;4933178;29;20212;-73
2023/11/29 13:29:14;;;;;;;1.67;1.58;;;2.10;99.90;;;;;;4933167;29;20201;-73
2023/11/29 13:31:41;;;;;;;1.65;1.55;;;2.00;99.90;;;;;;4933331;28;20624;-72
2023/11/29 13:34:09;;;;;;;2.10;1.90;;;2.00;99.90;;;;;;4933033;29;20232;-72
2023/11/29 13:36:36;;;;;;;1.92;1.75;;;1.90;99.90;;;;;;4932989;29;20675;-73
2023/11/29 13:39:05;;;;;;;2.15;1.95;;;1.90;99.90;;;;;;4933077;29;20678;-73
2023/11/29 13:41:32;;;;;;;1.67;1.58;;;1.80;99.90;;;;;;4936854;29;20229;-73
2023/11/29 13:43:59;;;;;;;2.40;2.20;;;1.80;99.90;;;;;;4937089;29;20236;-73
2023/11/29 13:46:27;;;;;;;2.38;2.08;;;1.80;99.90;;;;;;4936643;29;20746;-74
2023/11/29 13:48:54;;;;;;;2.45;2.15;;;1.90;99.90;;;;;;4937035;29;20205;-73
2023/11/29 13:51:23;;;;;;;2.38;1.95;;;1.90;99.90;;;;;;4936820;29;20229;-73
2023/11/29 13:53:50;;;;;;;2.10;1.88;;;1.90;99.90;;;;;;4936953;29;20585;-73
2023/11/29 13:56:16;;;;;;;1.70;1.60;;;1.90;99.90;;;;;;4936216;29;20205;-73
2023/11/29 13:58:45;;;;;;;3.17;2.47;;;1.90;99.90;;;;;;4936937;29;20205;-72
2023/11/29 14:01:12;;;;;;;2.60;2.10;;;1.90;99.90;;;;;;4936527;29;20233;-73
2023/11/29 14:03:39;;;;;;;3.22;2.58;;;1.90;99.90;;;;;;4936946;29;20210;-72
2023/11/29 14:06:06;;;;;;;3.17;2.38;;;2.00;99.90;;;;;;4931612;29;20221;-72
2023/11/29 14:08:34;;;;;;;2.47;2.00;;;2.10;99.90;;;;;;4932070;29;20584;-72
2023/11/29 14:11:00;;;;;;;3.35;2.28;;;2.10;99.90;;;;;;4935842;29;20253;-71
2023/11/29 14:13:29;;;;;;;2.47;2.00;;;2.20;99.90;;;;;;4936819;29;20232;-73
2023/11/29 14:15:56;;;;;;;3.00;2.35;;;2.20;99.90;;;;;;4936620;29;20213;-73
2023/11/29 14:18:23;;;;;;;2.50;2.30;;;2.20;99.90;;;;;;4936343;29;20264;-73
2023/11/29 14:20:50;;;;;;;2.47;2.17;;;2.20;99.90;;;;;;4931033;29;20229;-71
2023/11/29 14:23:17;;;;;;;1.95;1.77;;;2.20;99.90;;;;;;4936195;29;20584;-70
2023/11/29 14:25:46;;;;;;;2.28;2.08;;;2.20;99.90;;;;;;4933808;29;20212;-71
2023/11/29 14:28:13;;;;;;;4.45;2.10;;;2.30;99.90;;;;;;4935423;29;20209;-71
2023/11/29 14:30:39;;;;;;;2.10;1.77;;;2.30;99.90;;;;;;4936563;29;20224;-71
2023/11/29 14:33:06;;;;;;;2.75;2.30;;;2.30;99.90;;;;;;4933720;29;20225;-72
2023/11/29 14:35:33;;;;;;;1.65;1.33;;;2.30;99.90;;;;;;4936125;29;20209;-69
2023/11/29 14:37:59;;;;;;;2.65;1.70;;;2.40;99.90;;;;;;4927596;29;20209;-70
2023/11/29 14:40:26;;;;;;;2.33;1.70;;;2.50;99.90;;;;;;4923761;29;20218;-70
2023/11/29 14:42:55;;;;;;;4.03;1.70;;;2.50;99.90;;;;;;4922583;29;20683;-70
2023/11/29 14:45:22;;;;;;;2.30;2.13;;;2.50;99.90;;;;;;4918035;29;20249;-71
2023/11/29 14:47:48;;;;;;;3.40;2.50;;;2.50;99.90;;;;;;4922775;29;20292;-69
2023/11/29 14:50:16;;;;;;;1.73;1.63;;;2.50;99.90;;;;;;4923846;29;20216;-71
2023/11/29 14:52:43;;;;;;;3.28;2.13;;;2.40;99.90;;;;;;4924462;29;20634;-69
2023/11/29 14:55:09;;;;;;;1.98;1.70;;;2.30;99.90;;;;;;4919788;29;20213;-70
2023/11/29 14:57:38;;;;;;;1.98;1.77;;;2.20;99.90;;;;;;4918531;29;20675;-70
2023/11/29 15:00:09;;;;;;;2.15;1.63;;;2.20;99.90;;;;;;4920915;29;20212;-70
2023/11/29 15:02:36;;;;;;;1.63;1.52;;;2.20;99.90;;;;;;4929264;29;20323;-70
2023/11/29 15:05:02;;;;;;;1.95;1.60;;;2.20;99.90;;;;;;4924333;29;20212;-70
2023/11/29 15:07:29;;;;;;;1.70;1.35;;;2.20;99.90;;;;;;4925186;29;20243;-71
2023/11/29 15:09:56;;;;;;;3.10;2.10;;;2.20;99.90;;;;;;4918187;29;20798;-71
2023/11/29 15:12:22;;;;;;;1.58;1.40;;;2.20;99.90;;;;;;4921376;29;23093;-71
2023/11/29 15:14:49;;;;;;;2.25;1.70;;;2.10;99.90;;;;;;4919317;29;20253;-72
2023/11/29 15:17:18;;;;;;;2.60;1.80;;;2.10;99.90;;;;;;4922997;29;20212;-71
2023/11/29 15:19:45;;;;;;;1.30;1.20;;;2.00;99.90;;;;;;4919789;29;20216;-72
2023/11/29 15:22:12;;;;;;;1.55;1.40;;;1.90;99.90;;;;;;4926286;29;20709;-71
2023/11/29 15:24:41;;;;;;;2.85;1.42;;;1.90;99.90;;;;;;4918968;29;20202;-73
2023/11/29 15:27:09;;;;;;;2.40;2.00;;;1.90;99.90;;;;;;4925291;29;20240;-72
2023/11/29 15:29:37;;;;;;;5.70;2.13;;;1.90;99.90;;;;;;4919958;29;20293;-72
2023/11/29 15:32:04;;;;;;;2.67;1.50;;;1.80;99.90;;;;;;4923485;29;20229;-72
2023/11/29 15:34:32;;;;;;;2.33;1.85;;;1.80;99.90;;;;;;4921491;29;20671;-72
2023/11/29 15:36:59;;;;;;;2.75;2.10;;;1.80;99.90;;;;;;4923583;29;20213;-72
2023/11/29 15:39:26;;;;;;;1.67;1.55;;;1.80;99.90;;;;;;4921918;29;20218;-73
2023/11/29 15:41:53;;;;;;;3.47;2.60;;;1.90;99.90;;;;;;4924746;29;20736;-72
2023/11/29 15:44:20;;;;;;;5.05;3.03;;;1.90;99.90;;;;;;4921252;29;20197;-73
2023/11/29 15:46:47;;;;;;;2.58;1.73;;;1.90;99.90;;;;;;4921940;29;20213;-73
2023/11/29 15:49:14;;;;;;;2.20;1.90;;;2.00;99.90;;;;;;4924303;29;20678;-72
2023/11/29 15:51:42;;;;;;;3.15;1.67;;;2.00;99.90;;;;;;4924939;29;20233;-73
2023/11/29 15:54:09;;;;;;;2.50;1.90;;;2.00;99.90;;;;;;4924726;29;20289;-73
2023/11/29 15:56:36;;;;;;;1.92;1.83;;;2.00;99.90;;;;;;4923287;29;20281;-72
2023/11/29 15:59:03;;;;;;;3.72;1.70;;;2.10;99.90;;;;;;4923083;29;20232;-73
2023/11/29 16:01:30;;;;;;;1.40;1.30;;;2.10;99.90;;;;;;4920426;29;20237;-72
2023/11/29 16:03:59;;;;;;;1.95;1.55;;;2.00;99.90;;;;;;4919488;29;20261;-72
2023/11/29 16:06:26;;;;;;;2.42;1.60;;;2.00;99.90;;;;;;4922625;29;20232;-73
2023/11/29 16:08:55;;;;;;;1.60;1.50;;;1.90;99.90;;;;;;4924271;29;20679;-72
2023/11/29 16:11:22;;;;;;;1.73;1.50;;;1.90;99.90;;;;;;4923277;29;20742;-73
2023/11/29 16:13:49;;;;;;;1.85;1.55;;;1.80;99.90;;;;;;4925030;29;20229;-72
2023/11/29 16:16:16;;;;;;;2.40;1.65;;;1.90;99.90;;;;;;4922602;29;20209;-73
2023/11/29 16:18:43;;;;;;;1.92;1.60;;;1.80;99.90;;;;;;4921442;29;20206;-72
2023/11/29 16:21:10;;;;;;;2.30;1.85;;;1.80;99.90;;;;;;4921972;29;20241;-72
2023/11/29 16:23:38;;;;;;;7.47;2.42;;;1.70;99.90;;;;;;4918325;29;20214;-72
2023/11/29 16:26:07;;;;;;;1.17;1.08;;;1.60;99.90;;;;;;4922223;29;20213;-72
2023/11/29 16:28:36;;;;;;;2.08;1.77;;;1.60;99.90;;;;;;4920976;29;20214;-72
2023/11/29 16:31:03;;;;;;;3.03;1.52;;;1.50;99.90;;;;;;4925863;29;20284;-72
2023/11/29 16:33:31;;;;;;;2.47;1.85;;;1.50;99.90;;;;;;4921221;29;20235;-72
2023/11/29 16:35:59;;;;;;;2.00;1.90;;;1.40;99.90;;;;;;4923603;29;20245;-71
2023/11/29 16:38:26;;;;;;;2.72;1.70;;;1.40;99.90;;;;;;4923555;29;20209;-71
2023/11/29 16:40:53;;;;;;;1.70;1.42;;;1.30;99.90;;;;;;4928403;29;20229;-70
2023/11/29 16:43:21;;;;;;;1.60;1.50;;;1.30;99.90;;;;;;4926225;29;20218;-70
2023/11/29 16:45:48;;;;;;;1.58;1.10;;;1.30;99.90;;;;;;4923984;29;20292;-70
2023/11/29 16:48:15;;;;;;;1.45;1.35;;;1.20;99.90;;;;;;4922731;29;20205;-71
2023/11/29 16:50:43;;;;;;;1.52;1.20;;;1.20;99.90;;;;;;4920282;29;20329;-70
2023/11/29 16:53:10;;;;;;;1.98;1.70;;;1.10;99.90;;;;;;4924841;29;20582;-71
2023/11/29 16:55:37;;;;;;;1.45;1.30;;;1.10;99.90;;;;;;4922338;29;20209;-71
2023/11/29 16:58:05;;;;;;;1.70;1.30;;;1.10;99.90;;;;;;4925210;29;20288;-71
2023/11/29 17:00:34;;;;;;;1.70;1.60;;;1.00;99.90;;;;;;4923859;29;20216;-71
2023/11/29 17:03:01;;;;;;;1.60;1.20;;;1.00;99.90;;;;;;4924370;29;20226;-71
2023/11/29 17:05:28;;;;;;;4.53;1.60;;;1.00;99.90;;;;;;4922682;29;20201;-71
2023/11/29 17:07:55;;;;;;;2.30;1.15;;;1.00;99.90;;;;;;4924971;29;20238;-71
2023/11/29 17:10:23;;;;;;;1.88;1.50;;;1.00;99.90;;;;;;4926613;29;20708;-71